sensor_id;sensor_type;location;lat;lon;timestamp;P1;durP1;ratioP1;P2;durP2;ratioP2
3022;SDS011;1521;53.584;9.938;2022-09-09T00:01:02;75.03;;;36.50;;
3022;SDS011;1521;53.584;9.938;2022-09-09T00:03:37;89.47;;;36.57;;
3022;SDS011;1521;53.584;9.938;2022-09-09T00:11:44;75.10;;;34.73;;
3022;SDS011;1521;53.584;9.938;2022-09-09T00:14:16;85.00;;;36.50;;
3022;SDS011;1521;53.584;9.938;2022-09-09T00:16:59;85.93;;;36.43;;
3022;SDS011;1521;53.584;9.938;2022-09-09T00:19:40;82.60;;;37.60;;
3022;SDS011;1521;53.584;9.938;2022-09-09T00:22:21;75.17;;;35.87;;
3022;SDS011;1521;53.584;9.938;2022-09-09T00:24:52;74.17;;;36.10;;
3022;SDS011;1521;53.584;9.938;2022-09-09T00:27:21;71.13;;;33.50;;
3022;SDS011;1521;53.584;9.938;2022-09-09T00:29:58;79.17;;;35.50;;
3022;SDS011;1521;53.584;9.938;2022-09-09T00:32:45;72.30;;;33.57;;
3022;SDS011;1521;53.584;9.938;2022-09-09T00:35:23;79.63;;;35.17;;
3022;SDS011;1521;53.584;9.938;2022-09-09T00:37:52;66.13;;;31.30;;
3022;SDS011;1521;53.584;9.938;2022-09-09T00:40:34;64.80;;;33.53;;
3022;SDS011;1521;53.584;9.938;2022-09-09T00:57:13;59.83;;;31.37;;
3022;SDS011;1521;53.584;9.938;2022-09-09T01:00:02;58.33;;;29.40;;
3022;SDS011;1521;53.584;9.938;2022-09-09T01:02:52;69.53;;;31.90;;
3022;SDS011;1521;53.584;9.938;2022-09-09T01:05:33;68.60;;;31.90;;
3022;SDS011;1521;53.584;9.938;2022-09-09T01:11:16;51.43;;;28.97;;
3022;SDS011;1521;53.584;9.938;2022-09-09T01:13:47;67.10;;;33.00;;
3022;SDS011;1521;53.584;9.938;2022-09-09T01:16:24;76.93;;;35.53;;
3022;SDS011;1521;53.584;9.938;2022-09-09T01:18:51;71.10;;;35.37;;
3022;SDS011;1521;53.584;9.938;2022-09-09T01:26:45;70.07;;;33.40;;
3022;SDS011;1521;53.584;9.938;2022-09-09T01:29:13;74.40;;;33.23;;
3022;SDS011;1521;53.584;9.938;2022-09-09T01:34:13;60.10;;;30.57;;
3022;SDS011;1521;53.584;9.938;2022-09-09T01:36:44;76.80;;;32.17;;
3022;SDS011;1521;53.584;9.938;2022-09-09T01:39:17;61.87;;;29.97;;
3022;SDS011;1521;53.584;9.938;2022-09-09T01:41:42;62.40;;;30.73;;
3022;SDS011;1521;53.584;9.938;2022-09-09T01:44:08;69.93;;;31.60;;
3022;SDS011;1521;53.584;9.938;2022-09-09T01:46:34;76.83;;;31.27;;
3022;SDS011;1521;53.584;9.938;2022-09-09T01:49:00;83.50;;;33.40;;
3022;SDS011;1521;53.584;9.938;2022-09-09T01:51:29;71.87;;;33.80;;
3022;SDS011;1521;53.584;9.938;2022-09-09T01:53:55;66.93;;;30.33;;
3022;SDS011;1521;53.584;9.938;2022-09-09T02:01:56;150.07;;;35.50;;
3022;SDS011;1521;53.584;9.938;2022-09-09T02:04:44;101.73;;;35.13;;
3022;SDS011;1521;53.584;9.938;2022-09-09T02:07:29;81.27;;;32.60;;
3022;SDS011;1521;53.584;9.938;2022-09-09T02:10:02;79.87;;;32.03;;
3022;SDS011;1521;53.584;9.938;2022-09-09T02:12:32;85.20;;;34.90;;
3022;SDS011;1521;53.584;9.938;2022-09-09T02:15:06;76.50;;;32.07;;
3022;SDS011;1521;53.584;9.938;2022-09-09T02:17:38;112.30;;;33.47;;
3022;SDS011;1521;53.584;9.938;2022-09-09T02:20:07;73.03;;;31.43;;
3022;SDS011;1521;53.584;9.938;2022-09-09T02:22:37;130.17;;;36.63;;
3022;SDS011;1521;53.584;9.938;2022-09-09T02:25:06;87.73;;;32.20;;
3022;SDS011;1521;53.584;9.938;2022-09-09T02:27:35;80.40;;;33.80;;
3022;SDS011;1521;53.584;9.938;2022-09-09T02:30:01;87.93;;;33.57;;
3022;SDS011;1521;53.584;9.938;2022-09-09T02:32:29;99.10;;;33.13;;
3022;SDS011;1521;53.584;9.938;2022-09-09T02:34:58;85.90;;;33.33;;
3022;SDS011;1521;53.584;9.938;2022-09-09T02:37:31;98.60;;;33.50;;
3022;SDS011;1521;53.584;9.938;2022-09-09T02:40:03;72.17;;;31.10;;
3022;SDS011;1521;53.584;9.938;2022-09-09T02:42:30;85.93;;;33.70;;
3022;SDS011;1521;53.584;9.938;2022-09-09T02:44:57;75.57;;;32.93;;
3022;SDS011;1521;53.584;9.938;2022-09-09T02:50:13;75.97;;;31.00;;
3022;SDS011;1521;53.584;9.938;2022-09-09T02:52:47;94.13;;;31.20;;
3022;SDS011;1521;53.584;9.938;2022-09-09T02:58:29;76.80;;;31.80;;
3022;SDS011;1521;53.584;9.938;2022-09-09T03:00:54;63.73;;;30.13;;
3022;SDS011;1521;53.584;9.938;2022-09-09T03:03:22;60.37;;;29.13;;
3022;SDS011;1521;53.584;9.938;2022-09-09T03:05:49;76.90;;;30.50;;
3022;SDS011;1521;53.584;9.938;2022-09-09T03:08:14;64.27;;;27.33;;
3022;SDS011;1521;53.584;9.938;2022-09-09T03:10:41;60.63;;;28.33;;
3022;SDS011;1521;53.584;9.938;2022-09-09T03:13:06;57.50;;;28.63;;
3022;SDS011;1521;53.584;9.938;2022-09-09T03:15:33;54.37;;;26.10;;
3022;SDS011;1521;53.584;9.938;2022-09-09T03:17:59;63.20;;;27.37;;
3022;SDS011;1521;53.584;9.938;2022-09-09T03:20:26;51.43;;;27.07;;
3022;SDS011;1521;53.584;9.938;2022-09-09T03:22:53;53.43;;;27.50;;
3022;SDS011;1521;53.584;9.938;2022-09-09T03:25:20;54.60;;;26.30;;
3022;SDS011;1521;53.584;9.938;2022-09-09T03:27:48;48.37;;;24.63;;
3022;SDS011;1521;53.584;9.938;2022-09-09T03:30:14;59.23;;;27.03;;
3022;SDS011;1521;53.584;9.938;2022-09-09T03:32:40;50.27;;;25.97;;
3022;SDS011;1521;53.584;9.938;2022-09-09T03:35:06;47.17;;;24.40;;
3022;SDS011;1521;53.584;9.938;2022-09-09T03:37:32;48.60;;;24.40;;
3022;SDS011;1521;53.584;9.938;2022-09-09T03:39:57;52.37;;;26.37;;
3022;SDS011;1521;53.584;9.938;2022-09-09T03:42:24;47.60;;;25.23;;
3022;SDS011;1521;53.584;9.938;2022-09-09T03:44:50;40.47;;;23.10;;
3022;SDS011;1521;53.584;9.938;2022-09-09T03:47:20;53.17;;;24.63;;
3022;SDS011;1521;53.584;9.938;2022-09-09T03:49:49;43.27;;;24.57;;
3022;SDS011;1521;53.584;9.938;2022-09-09T03:52:15;50.23;;;25.37;;
3022;SDS011;1521;53.584;9.938;2022-09-09T03:54:41;51.03;;;25.13;;
3022;SDS011;1521;53.584;9.938;2022-09-09T03:57:07;45.53;;;23.20;;
3022;SDS011;1521;53.584;9.938;2022-09-09T03:59:34;45.67;;;23.40;;
3022;SDS011;1521;53.584;9.938;2022-09-09T04:02:00;49.80;;;25.93;;
3022;SDS011;1521;53.584;9.938;2022-09-09T04:04:26;48.33;;;25.37;;
3022;SDS011;1521;53.584;9.938;2022-09-09T04:06:52;38.33;;;21.53;;
3022;SDS011;1521;53.584;9.938;2022-09-09T04:09:18;52.00;;;25.20;;
3022;SDS011;1521;53.584;9.938;2022-09-09T04:11:44;47.70;;;24.70;;
3022;SDS011;1521;53.584;9.938;2022-09-09T04:14:11;51.57;;;24.20;;
3022;SDS011;1521;53.584;9.938;2022-09-09T04:16:37;47.07;;;24.73;;
3022;SDS011;1521;53.584;9.938;2022-09-09T04:19:04;56.37;;;25.67;;
3022;SDS011;1521;53.584;9.938;2022-09-09T04:21:30;52.60;;;25.30;;
3022;SDS011;1521;53.584;9.938;2022-09-09T04:23:56;49.10;;;24.70;;
3022;SDS011;1521;53.584;9.938;2022-09-09T04:26:21;54.70;;;24.97;;
3022;SDS011;1521;53.584;9.938;2022-09-09T04:28:47;45.83;;;23.97;;
3022;SDS011;1521;53.584;9.938;2022-09-09T04:31:17;48.57;;;22.63;;
3022;SDS011;1521;53.584;9.938;2022-09-09T04:33:45;44.73;;;24.77;;
3022;SDS011;1521;53.584;9.938;2022-09-09T04:36:11;46.00;;;24.90;;
3022;SDS011;1521;53.584;9.938;2022-09-09T04:38:37;49.27;;;23.27;;
3022;SDS011;1521;53.584;9.938;2022-09-09T04:41:03;49.17;;;23.50;;
3022;SDS011;1521;53.584;9.938;2022-09-09T04:43:29;43.47;;;24.30;;
3022;SDS011;1521;53.584;9.938;2022-09-09T04:45:56;53.17;;;24.80;;
3022;SDS011;1521;53.584;9.938;2022-09-09T04:48:22;45.07;;;23.20;;
3022;SDS011;1521;53.584;9.938;2022-09-09T04:53:23;44.60;;;22.73;;
3022;SDS011;1521;53.584;9.938;2022-09-09T04:55:50;53.90;;;25.10;;
3022;SDS011;1521;53.584;9.938;2022-09-09T04:58:16;57.53;;;24.60;;
3022;SDS011;1521;53.584;9.938;2022-09-09T05:00:42;39.57;;;22.80;;
3022;SDS011;1521;53.584;9.938;2022-09-09T05:03:07;41.20;;;22.93;;
3022;SDS011;1521;53.584;9.938;2022-09-09T05:05:34;51.97;;;24.93;;
3022;SDS011;1521;53.584;9.938;2022-09-09T05:08:03;37.57;;;21.73;;
3022;SDS011;1521;53.584;9.938;2022-09-09T05:10:30;38.70;;;21.00;;
3022;SDS011;1521;53.584;9.938;2022-09-09T05:12:56;37.83;;;21.67;;
3022;SDS011;1521;53.584;9.938;2022-09-09T05:15:22;37.93;;;21.00;;
3022;SDS011;1521;53.584;9.938;2022-09-09T05:17:48;36.30;;;20.67;;
3022;SDS011;1521;53.584;9.938;2022-09-09T05:20:13;40.37;;;21.10;;
3022;SDS011;1521;53.584;9.938;2022-09-09T05:22:39;34.73;;;19.20;;
3022;SDS011;1521;53.584;9.938;2022-09-09T05:25:05;36.50;;;19.70;;
3022;SDS011;1521;53.584;9.938;2022-09-09T05:27:33;38.13;;;20.50;;
3022;SDS011;1521;53.584;9.938;2022-09-09T05:29:59;29.10;;;17.77;;
3022;SDS011;1521;53.584;9.938;2022-09-09T05:32:24;32.47;;;19.03;;
3022;SDS011;1521;53.584;9.938;2022-09-09T05:34:50;32.03;;;18.50;;
3022;SDS011;1521;53.584;9.938;2022-09-09T05:37:17;27.17;;;16.90;;
3022;SDS011;1521;53.584;9.938;2022-09-09T05:39:43;32.77;;;19.67;;
3022;SDS011;1521;53.584;9.938;2022-09-09T05:42:09;29.73;;;17.67;;
3022;SDS011;1521;53.584;9.938;2022-09-09T05:44:35;30.57;;;19.37;;
3022;SDS011;1521;53.584;9.938;2022-09-09T05:47:00;33.07;;;19.20;;
3022;SDS011;1521;53.584;9.938;2022-09-09T05:49:26;32.43;;;20.30;;
3022;SDS011;1521;53.584;9.938;2022-09-09T05:51:52;30.33;;;19.03;;
3022;SDS011;1521;53.584;9.938;2022-09-09T05:54:18;29.40;;;18.80;;
3022;SDS011;1521;53.584;9.938;2022-09-09T05:56:43;29.13;;;17.33;;
3022;SDS011;1521;53.584;9.938;2022-09-09T05:59:09;33.27;;;18.97;;
3022;SDS011;1521;53.584;9.938;2022-09-09T06:01:36;34.40;;;20.00;;
3022;SDS011;1521;53.584;9.938;2022-09-09T06:04:05;28.83;;;18.80;;
3022;SDS011;1521;53.584;9.938;2022-09-09T06:06:33;32.73;;;20.10;;
3022;SDS011;1521;53.584;9.938;2022-09-09T06:09:03;33.27;;;19.53;;
3022;SDS011;1521;53.584;9.938;2022-09-09T06:11:35;25.23;;;16.03;;
3022;SDS011;1521;53.584;9.938;2022-09-09T06:14:03;25.10;;;16.50;;
3022;SDS011;1521;53.584;9.938;2022-09-09T06:16:29;23.73;;;16.90;;
3022;SDS011;1521;53.584;9.938;2022-09-09T06:18:57;25.13;;;18.20;;
3022;SDS011;1521;53.584;9.938;2022-09-09T06:21:30;27.07;;;18.00;;
3022;SDS011;1521;53.584;9.938;2022-09-09T06:23:58;26.20;;;18.20;;
3022;SDS011;1521;53.584;9.938;2022-09-09T06:26:24;23.80;;;16.27;;
3022;SDS011;1521;53.584;9.938;2022-09-09T06:29:01;27.80;;;16.60;;
3022;SDS011;1521;53.584;9.938;2022-09-09T06:31:29;26.97;;;16.13;;
3022;SDS011;1521;53.584;9.938;2022-09-09T06:33:56;25.57;;;15.80;;
3022;SDS011;1521;53.584;9.938;2022-09-09T06:36:27;32.43;;;16.77;;
3022;SDS011;1521;53.584;9.938;2022-09-09T06:38:54;26.63;;;16.40;;
3022;SDS011;1521;53.584;9.938;2022-09-09T06:41:21;27.30;;;15.60;;
3022;SDS011;1521;53.584;9.938;2022-09-09T06:43:48;25.10;;;16.10;;
3022;SDS011;1521;53.584;9.938;2022-09-09T06:46:15;21.60;;;15.10;;
3022;SDS011;1521;53.584;9.938;2022-09-09T06:48:41;23.97;;;16.10;;
3022;SDS011;1521;53.584;9.938;2022-09-09T06:53:38;22.10;;;15.10;;
3022;SDS011;1521;53.584;9.938;2022-09-09T06:56:26;22.87;;;15.37;;
3022;SDS011;1521;53.584;9.938;2022-09-09T06:58:51;23.23;;;13.30;;
3022;SDS011;1521;53.584;9.938;2022-09-09T07:01:18;26.73;;;16.57;;
3022;SDS011;1521;53.584;9.938;2022-09-09T07:03:46;23.77;;;14.97;;
3022;SDS011;1521;53.584;9.938;2022-09-09T07:06:15;18.70;;;13.83;;
3022;SDS011;1521;53.584;9.938;2022-09-09T07:08:43;22.17;;;15.33;;
3022;SDS011;1521;53.584;9.938;2022-09-09T07:11:09;23.03;;;15.73;;
3022;SDS011;1521;53.584;9.938;2022-09-09T07:13:36;16.03;;;12.67;;
3022;SDS011;1521;53.584;9.938;2022-09-09T07:16:06;17.33;;;11.30;;
3022;SDS011;1521;53.584;9.938;2022-09-09T07:18:34;16.13;;;9.70;;
3022;SDS011;1521;53.584;9.938;2022-09-09T07:21:00;13.13;;;8.40;;
3022;SDS011;1521;53.584;9.938;2022-09-09T07:23:27;8.83;;;6.83;;
3022;SDS011;1521;53.584;9.938;2022-09-09T07:25:53;14.77;;;6.80;;
3022;SDS011;1521;53.584;9.938;2022-09-09T07:28:19;13.17;;;6.10;;
3022;SDS011;1521;53.584;9.938;2022-09-09T07:30:55;8.63;;;5.53;;
3022;SDS011;1521;53.584;9.938;2022-09-09T07:33:22;7.00;;;5.27;;
3022;SDS011;1521;53.584;9.938;2022-09-09T07:35:49;15.37;;;7.13;;
3022;SDS011;1521;53.584;9.938;2022-09-09T07:38:15;11.20;;;8.73;;
3022;SDS011;1521;53.584;9.938;2022-09-09T07:40:41;13.60;;;6.00;;
3022;SDS011;1521;53.584;9.938;2022-09-09T07:43:06;7.60;;;5.30;;
3022;SDS011;1521;53.584;9.938;2022-09-09T07:45:33;5.30;;;4.80;;
3022;SDS011;1521;53.584;9.938;2022-09-09T07:48:00;8.37;;;5.03;;
3022;SDS011;1521;53.584;9.938;2022-09-09T07:50:27;10.00;;;5.77;;
3022;SDS011;1521;53.584;9.938;2022-09-09T07:52:52;6.43;;;4.60;;
3022;SDS011;1521;53.584;9.938;2022-09-09T07:55:19;9.50;;;4.83;;
3022;SDS011;1521;53.584;9.938;2022-09-09T07:57:45;14.33;;;4.47;;
3022;SDS011;1521;53.584;9.938;2022-09-09T08:00:12;9.23;;;4.67;;
3022;SDS011;1521;53.584;9.938;2022-09-09T08:02:40;6.17;;;5.00;;
3022;SDS011;1521;53.584;9.938;2022-09-09T08:05:06;12.07;;;7.60;;
3022;SDS011;1521;53.584;9.938;2022-09-09T08:07:31;8.53;;;5.10;;
3022;SDS011;1521;53.584;9.938;2022-09-09T08:09:57;7.60;;;5.67;;
3022;SDS011;1521;53.584;9.938;2022-09-09T08:12:23;6.50;;;4.17;;
3022;SDS011;1521;53.584;9.938;2022-09-09T08:14:48;6.40;;;4.90;;
3022;SDS011;1521;53.584;9.938;2022-09-09T08:17:14;8.30;;;4.87;;
3022;SDS011;1521;53.584;9.938;2022-09-09T08:19:40;7.07;;;5.53;;
3022;SDS011;1521;53.584;9.938;2022-09-09T08:22:05;8.03;;;4.97;;
3022;SDS011;1521;53.584;9.938;2022-09-09T08:24:32;8.33;;;4.77;;
3022;SDS011;1521;53.584;9.938;2022-09-09T08:26:58;5.53;;;4.30;;
3022;SDS011;1521;53.584;9.938;2022-09-09T08:29:24;7.97;;;6.80;;
3022;SDS011;1521;53.584;9.938;2022-09-09T08:31:51;5.10;;;4.60;;
3022;SDS011;1521;53.584;9.938;2022-09-09T08:34:19;5.70;;;4.30;;
3022;SDS011;1521;53.584;9.938;2022-09-09T08:36:46;5.87;;;4.63;;
3022;SDS011;1521;53.584;9.938;2022-09-09T08:39:17;7.30;;;4.13;;
3022;SDS011;1521;53.584;9.938;2022-09-09T08:52:55;6.60;;;4.20;;
3022;SDS011;1521;53.584;9.938;2022-09-09T08:57:35;8.10;;;3.80;;
3022;SDS011;1521;53.584;9.938;2022-09-09T09:00:01;7.00;;;3.40;;
3022;SDS011;1521;53.584;9.938;2022-09-09T09:02:32;5.53;;;3.77;;
3022;SDS011;1521;53.584;9.938;2022-09-09T09:07:52;4.60;;;4.00;;
3022;SDS011;1521;53.584;9.938;2022-09-09T09:10:24;4.20;;;2.97;;
3022;SDS011;1521;53.584;9.938;2022-09-09T09:12:55;5.60;;;3.30;;
3022;SDS011;1521;53.584;9.938;2022-09-09T09:15:23;6.80;;;3.30;;
3022;SDS011;1521;53.584;9.938;2022-09-09T09:17:50;6.13;;;2.77;;
3022;SDS011;1521;53.584;9.938;2022-09-09T09:20:16;4.47;;;2.10;;
3022;SDS011;1521;53.584;9.938;2022-09-09T09:22:47;4.60;;;2.10;;
3022;SDS011;1521;53.584;9.938;2022-09-09T09:25:17;2.80;;;2.27;;
3022;SDS011;1521;53.584;9.938;2022-09-09T09:28:10;2.17;;;1.90;;
3022;SDS011;1521;53.584;9.938;2022-09-09T09:30:42;5.07;;;2.10;;
3022;SDS011;1521;53.584;9.938;2022-09-09T09:35:51;2.53;;;1.60;;
3022;SDS011;1521;53.584;9.938;2022-09-09T09:38:25;3.30;;;1.70;;
3022;SDS011;1521;53.584;9.938;2022-09-09T09:40:53;2.50;;;1.90;;
3022;SDS011;1521;53.584;9.938;2022-09-09T09:43:27;4.83;;;2.23;;
3022;SDS011;1521;53.584;9.938;2022-09-09T09:45:57;2.40;;;2.00;;
3022;SDS011;1521;53.584;9.938;2022-09-09T09:48:23;4.43;;;1.60;;
3022;SDS011;1521;53.584;9.938;2022-09-09T09:50:52;2.10;;;1.90;;
3022;SDS011;1521;53.584;9.938;2022-09-09T09:53:29;3.90;;;2.90;;
3022;SDS011;1521;53.584;9.938;2022-09-09T09:56:00;3.93;;;2.13;;
3022;SDS011;1521;53.584;9.938;2022-09-09T10:04:00;4.83;;;2.10;;
3022;SDS011;1521;53.584;9.938;2022-09-09T10:06:31;3.40;;;2.07;;
3022;SDS011;1521;53.584;9.938;2022-09-09T10:09:24;2.17;;;1.90;;
3022;SDS011;1521;53.584;9.938;2022-09-09T10:12:06;1.80;;;1.50;;
3022;SDS011;1521;53.584;9.938;2022-09-09T10:14:41;4.83;;;1.97;;
3022;SDS011;1521;53.584;9.938;2022-09-09T10:20:22;3.17;;;2.70;;
3022;SDS011;1521;53.584;9.938;2022-09-09T10:22:56;2.97;;;2.27;;
3022;SDS011;1521;53.584;9.938;2022-09-09T10:31:08;3.60;;;2.47;;
3022;SDS011;1521;53.584;9.938;2022-09-09T10:34:03;4.97;;;2.40;;
3022;SDS011;1521;53.584;9.938;2022-09-09T10:36:41;2.80;;;2.20;;
3022;SDS011;1521;53.584;9.938;2022-09-09T10:42:05;4.17;;;2.07;;
3022;SDS011;1521;53.584;9.938;2022-09-09T10:53:22;7.60;;;1.87;;
3022;SDS011;1521;53.584;9.938;2022-09-09T10:55:59;3.77;;;1.90;;
3022;SDS011;1521;53.584;9.938;2022-09-09T11:01:16;4.07;;;1.70;;
3022;SDS011;1521;53.584;9.938;2022-09-09T11:03:49;4.27;;;2.30;;
3022;SDS011;1521;53.584;9.938;2022-09-09T11:06:21;3.20;;;1.50;;
3022;SDS011;1521;53.584;9.938;2022-09-09T11:08:53;2.90;;;1.93;;
3022;SDS011;1521;53.584;9.938;2022-09-09T11:11:21;2.40;;;1.67;;
3022;SDS011;1521;53.584;9.938;2022-09-09T11:16:40;2.70;;;1.40;;
3022;SDS011;1521;53.584;9.938;2022-09-09T11:21:53;2.10;;;1.73;;
3022;SDS011;1521;53.584;9.938;2022-09-09T11:30:31;2.90;;;1.80;;
3022;SDS011;1521;53.584;9.938;2022-09-09T11:38:26;3.63;;;1.40;;
3022;SDS011;1521;53.584;9.938;2022-09-09T11:40:59;3.30;;;1.83;;
3022;SDS011;1521;53.584;9.938;2022-09-09T11:43:28;2.67;;;1.70;;
3022;SDS011;1521;53.584;9.938;2022-09-09T11:45:58;3.10;;;1.53;;
3022;SDS011;1521;53.584;9.938;2022-09-09T11:48:32;2.47;;;1.90;;
3022;SDS011;1521;53.584;9.938;2022-09-09T11:51:08;2.77;;;1.97;;
3022;SDS011;1521;53.584;9.938;2022-09-09T11:59:01;4.40;;;1.90;;
3022;SDS011;1521;53.584;9.938;2022-09-09T12:04:43;5.50;;;1.87;;
3022;SDS011;1521;53.584;9.938;2022-09-09T12:06:54;4.10;;;1.70;;
3022;SDS011;1521;53.584;9.938;2022-09-09T12:09:23;4.10;;;1.80;;
3022;SDS011;1521;53.584;9.938;2022-09-09T12:11:50;8.13;;;2.03;;
3022;SDS011;1521;53.584;9.938;2022-09-09T12:14:35;5.33;;;2.10;;
3022;SDS011;1521;53.584;9.938;2022-09-09T12:17:09;3.00;;;2.10;;
3022;SDS011;1521;53.584;9.938;2022-09-09T12:19:43;2.40;;;2.10;;
3022;SDS011;1521;53.584;9.938;2022-09-09T12:22:51;4.33;;;2.13;;
3022;SDS011;1521;53.584;9.938;2022-09-09T12:28:06;7.00;;;2.70;;
3022;SDS011;1521;53.584;9.938;2022-09-09T12:33:39;3.67;;;2.07;;
3022;SDS011;1521;53.584;9.938;2022-09-09T12:36:17;4.17;;;2.30;;
3022;SDS011;1521;53.584;9.938;2022-09-09T12:38:45;5.57;;;2.27;;
3022;SDS011;1521;53.584;9.938;2022-09-09T12:41:22;3.17;;;1.93;;
3022;SDS011;1521;53.584;9.938;2022-09-09T12:44:03;5.83;;;2.50;;
3022;SDS011;1521;53.584;9.938;2022-09-09T12:46:48;5.57;;;2.43;;
3022;SDS011;1521;53.584;9.938;2022-09-09T12:49:26;2.47;;;2.00;;
3022;SDS011;1521;53.584;9.938;2022-09-09T12:52:05;8.03;;;2.40;;
3022;SDS011;1521;53.584;9.938;2022-09-09T12:54:38;4.60;;;2.20;;
3022;SDS011;1521;53.584;9.938;2022-09-09T12:57:11;4.73;;;2.77;;
3022;SDS011;1521;53.584;9.938;2022-09-09T12:59:40;4.23;;;2.50;;
3022;SDS011;1521;53.584;9.938;2022-09-09T13:02:14;5.63;;;2.63;;
3022;SDS011;1521;53.584;9.938;2022-09-09T13:04:49;7.73;;;2.90;;
3022;SDS011;1521;53.584;9.938;2022-09-09T13:07:16;3.20;;;2.30;;
3022;SDS011;1521;53.584;9.938;2022-09-09T13:09:43;6.80;;;3.17;;
3022;SDS011;1521;53.584;9.938;2022-09-09T13:12:14;7.10;;;3.20;;
3022;SDS011;1521;53.584;9.938;2022-09-09T13:14:43;6.70;;;3.07;;
3022;SDS011;1521;53.584;9.938;2022-09-09T13:17:17;3.40;;;3.10;;
3022;SDS011;1521;53.584;9.938;2022-09-09T13:19:45;4.57;;;3.43;;
3022;SDS011;1521;53.584;9.938;2022-09-09T13:22:20;4.87;;;3.60;;
3022;SDS011;1521;53.584;9.938;2022-09-09T13:24:59;4.60;;;3.60;;
3022;SDS011;1521;53.584;9.938;2022-09-09T13:27:36;5.00;;;3.50;;
3022;SDS011;1521;53.584;9.938;2022-09-09T13:30:26;5.33;;;3.13;;
3022;SDS011;1521;53.584;9.938;2022-09-09T13:32:59;10.17;;;3.23;;
3022;SDS011;1521;53.584;9.938;2022-09-09T13:35:31;10.67;;;3.70;;
3022;SDS011;1521;53.584;9.938;2022-09-09T13:37:58;4.30;;;2.37;;
3022;SDS011;1521;53.584;9.938;2022-09-09T13:40:32;5.03;;;2.03;;
3022;SDS011;1521;53.584;9.938;2022-09-09T13:42:57;7.33;;;2.53;;
3022;SDS011;1521;53.584;9.938;2022-09-09T13:45:24;11.00;;;3.93;;
3022;SDS011;1521;53.584;9.938;2022-09-09T13:47:52;6.23;;;3.70;;
3022;SDS011;1521;53.584;9.938;2022-09-09T13:52:54;5.33;;;3.93;;
3022;SDS011;1521;53.584;9.938;2022-09-09T13:55:23;10.87;;;4.80;;
3022;SDS011;1521;53.584;9.938;2022-09-09T13:57:54;7.53;;;4.57;;
3022;SDS011;1521;53.584;9.938;2022-09-09T14:00:25;7.47;;;5.73;;
3022;SDS011;1521;53.584;9.938;2022-09-09T14:02:51;15.83;;;5.87;;
3022;SDS011;1521;53.584;9.938;2022-09-09T14:05:18;7.57;;;5.83;;
3022;SDS011;1521;53.584;9.938;2022-09-09T14:07:44;8.77;;;6.13;;
3022;SDS011;1521;53.584;9.938;2022-09-09T14:10:11;5.90;;;5.30;;
3022;SDS011;1521;53.584;9.938;2022-09-09T14:12:37;9.20;;;6.20;;
3022;SDS011;1521;53.584;9.938;2022-09-09T14:15:03;9.60;;;6.40;;
3022;SDS011;1521;53.584;9.938;2022-09-09T14:17:30;13.30;;;6.27;;
3022;SDS011;1521;53.584;9.938;2022-09-09T14:19:56;7.57;;;6.77;;
3022;SDS011;1521;53.584;9.938;2022-09-09T14:22:22;13.27;;;7.90;;
3022;SDS011;1521;53.584;9.938;2022-09-09T14:24:48;14.87;;;6.97;;
3022;SDS011;1521;53.584;9.938;2022-09-09T14:27:16;8.47;;;6.80;;
3022;SDS011;1521;53.584;9.938;2022-09-09T14:29:42;10.00;;;7.23;;
3022;SDS011;1521;53.584;9.938;2022-09-09T14:32:09;9.67;;;6.00;;
3022;SDS011;1521;53.584;9.938;2022-09-09T14:34:35;6.50;;;5.80;;
3022;SDS011;1521;53.584;9.938;2022-09-09T14:37:00;10.13;;;6.50;;
3022;SDS011;1521;53.584;9.938;2022-09-09T14:39:26;11.60;;;5.53;;
3022;SDS011;1521;53.584;9.938;2022-09-09T14:41:52;12.00;;;5.80;;
3022;SDS011;1521;53.584;9.938;2022-09-09T14:44:18;7.43;;;4.87;;
3022;SDS011;1521;53.584;9.938;2022-09-09T14:46:43;5.77;;;4.67;;
3022;SDS011;1521;53.584;9.938;2022-09-09T14:49:09;6.30;;;4.60;;
3022;SDS011;1521;53.584;9.938;2022-09-09T14:51:37;7.83;;;5.20;;
3022;SDS011;1521;53.584;9.938;2022-09-09T14:54:04;9.23;;;5.53;;
3022;SDS011;1521;53.584;9.938;2022-09-09T14:56:31;6.37;;;5.53;;
3022;SDS011;1521;53.584;9.938;2022-09-09T14:58:59;6.57;;;5.97;;
3022;SDS011;1521;53.584;9.938;2022-09-09T15:01:26;8.13;;;5.50;;
3022;SDS011;1521;53.584;9.938;2022-09-09T15:03:54;9.80;;;6.20;;
3022;SDS011;1521;53.584;9.938;2022-09-09T15:06:24;5.93;;;5.33;;
3022;SDS011;1521;53.584;9.938;2022-09-09T15:08:51;7.63;;;5.90;;
3022;SDS011;1521;53.584;9.938;2022-09-09T15:11:18;12.67;;;5.00;;
3022;SDS011;1521;53.584;9.938;2022-09-09T15:13:45;7.33;;;3.63;;
3022;SDS011;1521;53.584;9.938;2022-09-09T15:16:13;4.67;;;4.13;;
3022;SDS011;1521;53.584;9.938;2022-09-09T15:18:41;4.17;;;3.77;;
3022;SDS011;1521;53.584;9.938;2022-09-09T15:21:10;7.13;;;4.33;;
3022;SDS011;1521;53.584;9.938;2022-09-09T15:23:40;7.03;;;4.50;;
3022;SDS011;1521;53.584;9.938;2022-09-09T15:26:06;8.63;;;5.17;;
3022;SDS011;1521;53.584;9.938;2022-09-09T15:28:33;9.00;;;4.83;;
3022;SDS011;1521;53.584;9.938;2022-09-09T15:31:07;6.50;;;4.70;;
3022;SDS011;1521;53.584;9.938;2022-09-09T15:33:39;7.43;;;4.40;;
3022;SDS011;1521;53.584;9.938;2022-09-09T15:36:21;7.83;;;5.00;;
3022;SDS011;1521;53.584;9.938;2022-09-09T15:38:48;6.57;;;4.50;;
3022;SDS011;1521;53.584;9.938;2022-09-09T15:41:16;8.37;;;5.37;;
3022;SDS011;1521;53.584;9.938;2022-09-09T15:43:47;11.63;;;4.67;;
3022;SDS011;1521;53.584;9.938;2022-09-09T15:48:49;5.63;;;5.00;;
3022;SDS011;1521;53.584;9.938;2022-09-09T15:51:15;10.17;;;5.67;;
3022;SDS011;1521;53.584;9.938;2022-09-09T15:53:41;10.07;;;6.90;;
3022;SDS011;1521;53.584;9.938;2022-09-09T15:56:07;12.10;;;8.53;;
3022;SDS011;1521;53.584;9.938;2022-09-09T15:58:33;17.97;;;9.77;;
3022;SDS011;1521;53.584;9.938;2022-09-09T16:01:01;15.50;;;8.90;;
3022;SDS011;1521;53.584;9.938;2022-09-09T16:03:34;11.63;;;8.30;;
3022;SDS011;1521;53.584;9.938;2022-09-09T16:06:01;9.60;;;7.70;;
3022;SDS011;1521;53.584;9.938;2022-09-09T16:08:37;7.93;;;5.90;;
3022;SDS011;1521;53.584;9.938;2022-09-09T16:11:06;6.80;;;6.10;;
3022;SDS011;1521;53.584;9.938;2022-09-09T16:13:40;6.47;;;5.53;;
3022;SDS011;1521;53.584;9.938;2022-09-09T16:16:07;8.63;;;4.83;;
3022;SDS011;1521;53.584;9.938;2022-09-09T16:18:35;7.27;;;4.93;;
3022;SDS011;1521;53.584;9.938;2022-09-09T16:21:02;5.90;;;4.33;;
3022;SDS011;1521;53.584;9.938;2022-09-09T16:23:30;5.27;;;4.20;;
3022;SDS011;1521;53.584;9.938;2022-09-09T16:25:57;7.17;;;4.10;;
3022;SDS011;1521;53.584;9.938;2022-09-09T16:28:22;6.17;;;4.17;;
3022;SDS011;1521;53.584;9.938;2022-09-09T16:30:48;13.63;;;5.37;;
3022;SDS011;1521;53.584;9.938;2022-09-09T16:33:14;6.80;;;4.63;;
3022;SDS011;1521;53.584;9.938;2022-09-09T16:35:41;6.80;;;4.00;;
3022;SDS011;1521;53.584;9.938;2022-09-09T16:38:06;5.60;;;4.07;;
3022;SDS011;1521;53.584;9.938;2022-09-09T16:40:35;6.50;;;4.73;;
3022;SDS011;1521;53.584;9.938;2022-09-09T16:43:06;5.07;;;3.90;;
3022;SDS011;1521;53.584;9.938;2022-09-09T16:45:32;7.53;;;4.43;;
3022;SDS011;1521;53.584;9.938;2022-09-09T16:47:58;8.17;;;4.50;;
3022;SDS011;1521;53.584;9.938;2022-09-09T16:50:25;10.63;;;4.70;;
3022;SDS011;1521;53.584;9.938;2022-09-09T16:52:51;6.50;;;4.60;;
3022;SDS011;1521;53.584;9.938;2022-09-09T16:55:17;5.93;;;4.00;;
3022;SDS011;1521;53.584;9.938;2022-09-09T16:57:45;8.37;;;4.80;;
3022;SDS011;1521;53.584;9.938;2022-09-09T17:00:13;6.97;;;4.53;;
3022;SDS011;1521;53.584;9.938;2022-09-09T17:02:43;5.20;;;3.97;;
3022;SDS011;1521;53.584;9.938;2022-09-09T17:05:10;6.10;;;3.80;;
3022;SDS011;1521;53.584;9.938;2022-09-09T17:07:36;5.63;;;4.03;;
3022;SDS011;1521;53.584;9.938;2022-09-09T17:10:03;6.83;;;4.10;;
3022;SDS011;1521;53.584;9.938;2022-09-09T17:12:30;4.10;;;3.10;;
3022;SDS011;1521;53.584;9.938;2022-09-09T17:14:57;5.00;;;3.40;;
3022;SDS011;1521;53.584;9.938;2022-09-09T17:17:24;6.63;;;3.20;;
3022;SDS011;1521;53.584;9.938;2022-09-09T17:19:49;5.10;;;3.33;;
3022;SDS011;1521;53.584;9.938;2022-09-09T17:22:15;6.60;;;3.30;;
3022;SDS011;1521;53.584;9.938;2022-09-09T17:24:41;3.33;;;3.03;;
3022;SDS011;1521;53.584;9.938;2022-09-09T17:27:07;6.93;;;3.53;;